Time;durP1;ratioP1;P1;durP2;ratioP2;P2;SDS_P1;SDS_P2;PMS_P1;PMS_P2;Temp;Humidity;BMP_temperature;BMP_pressure;BME280_temperature;BME280_humidity;BME280_pressure;Samples;Min_cycle;Max_cycle;Signal;HPM_P1;HPM_P2
2022/09/07 00:01:25;;;;;;;6.97;2.37;;;;;;;13.36;43.02;99608.69;1756114;81;20991;-38
2022/09/07 00:03:56;;;;;;;6.75;2.25;;;;;;;13.30;43.20;99607.72;1756125;80;21587;-44
2022/09/07 00:06:22;;;;;;;4.15;2.17;;;;;;;13.30;43.24;99613.00;1755593;80;21050;-39
2022/09/07 00:08:48;;;;;;;7.83;2.40;;;;;;;13.30;43.29;99605.53;1756136;80;21011;-42
2022/09/07 00:11:18;;;;;;;4.90;2.12;;;;;;;13.24;43.25;99602.80;1756146;81;21531;-48
2022/09/07 00:13:47;;;;;;;5.35;2.20;;;;;;;13.22;43.28;99604.23;1756088;80;21019;-45
2022/09/07 00:16:18;;;;;;;2.20;1.70;;;;;;;13.20;43.26;99598.66;1756126;81;21501;-43
2022/09/07 00:18:45;;;;;;;5.92;2.15;;;;;;;13.16;43.43;99601.95;1756156;82;20988;-41
2022/09/07 00:21:11;;;;;;;7.73;2.20;;;;;;;13.14;43.66;99606.96;1756428;80;20951;-42
2022/09/07 00:23:39;;;;;;;5.70;1.70;;;;;;;13.12;43.60;99609.69;1756390;82;20979;-45
2022/09/07 00:26:12;;;;;;;5.15;1.62;;;;;;;13.10;43.69;99603.66;1756238;80;21412;-37
2022/09/07 00:28:39;;;;;;;4.75;2.02;;;;;;;13.09;44.04;99606.39;1756153;80;20983;-45
2022/09/07 00:31:12;;;;;;;5.60;2.00;;;;;;;13.05;43.90;99598.64;1756376;81;20956;-43
2022/09/07 00:33:38;;;;;;;1.92;1.70;;;;;;;13.01;43.91;99609.50;1756111;82;21030;-42
2022/09/07 00:36:05;;;;;;;5.75;1.90;;;;;;;12.95;43.97;99605.44;1756114;82;21022;-42
2022/09/07 00:38:31;;;;;;;5.97;2.40;;;;;;;12.97;43.88;99602.68;1756087;80;20995;-44
2022/09/07 00:40:57;;;;;;;4.15;2.12;;;;;;;12.94;44.25;99603.73;1756070;82;20971;-41
2022/09/07 00:43:36;;;;;;;3.58;2.00;;;;;;;12.93;44.11;99602.02;1756172;80;21430;-41
2022/09/07 00:46:06;;;;;;;3.95;2.10;;;;;;;12.95;44.14;99611.17;1756061;81;21015;-38
2022/09/07 00:48:43;;;;;;;6.03;2.55;;;;;;;12.95;44.52;99617.77;1760899;81;21018;-47
2022/09/07 00:51:14;;;;;;;4.55;2.00;;;;;;;12.85;44.55;99610.88;1763079;80;20948;-46
2022/09/07 00:53:52;;;;;;;3.30;1.98;;;;;;;12.84;44.64;99612.68;1762678;81;21414;-47
2022/09/07 00:56:16;;;;;;;3.75;2.05;;;;;;;12.79;44.67;99608.14;1762964;81;21441;-39
2022/09/07 00:58:43;;;;;;;3.87;2.22;;;;;;;12.79;44.81;99612.58;1763338;81;20983;-44
2022/09/07 01:01:09;;;;;;;3.92;2.17;;;;;;;12.74;44.87;99615.47;1763319;80;21022;-37
2022/09/07 01:03:45;;;;;;;3.12;2.02;;;;;;;12.72;44.82;99613.88;1763221;81;20987;-41
2022/09/07 01:06:19;;;;;;;5.80;2.30;;;;;;;12.72;44.94;99611.23;1763656;81;20982;-45
2022/09/07 01:08:48;;;;;;;3.33;1.98;;;;;;;12.65;45.08;99611.58;1757169;81;20979;-41
2022/09/07 01:11:15;;;;;;;3.85;2.10;;;;;;;12.64;45.03;99609.03;1763244;80;21026;-47
2022/09/07 01:13:44;;;;;;;8.23;2.45;;;;;;;12.62;45.27;99608.27;1763438;80;20978;-39
2022/09/07 01:16:24;;;;;;;4.70;2.40;;;;;;;12.62;45.18;99604.31;1763327;81;21015;-40
2022/09/07 01:19:16;;;;;;;6.87;2.27;;;;;;;12.57;45.49;99607.69;1763203;81;20971;-42
2022/09/07 01:22:14;;;;;;;5.30;2.60;;;;;;;12.56;45.52;99606.84;1763299;81;20983;-42
2022/09/07 01:24:52;;;;;;;4.37;2.40;;;;;;;12.55;45.61;99605.16;1763293;80;20983;-41
2022/09/07 01:27:29;;;;;;;7.65;2.20;;;;;;;12.54;45.72;99599.49;1763142;81;21011;-43
2022/09/07 01:30:07;;;;;;;6.20;2.45;;;;;;;12.51;45.64;99590.43;1763029;81;21425;-43
2022/09/07 01:32:45;;;;;;;4.30;2.33;;;;;;;12.51;45.45;99593.55;1763311;81;20943;-43
2022/09/07 01:35:14;;;;;;;;;;;;;;;12.47;45.59;99591.08;1765882;81;21437;-40
2022/09/07 01:37:51;;;;;;;4.42;1.95;;;;;;;12.44;46.36;99587.33;1761105;81;20101;-39
2022/09/07 01:40:34;;;;;;;4.00;1.92;;;;;;;12.41;45.63;99586.66;1759164;80;20975;-41
2022/09/07 01:43:06;;;;;;;4.35;2.15;;;;;;;12.39;45.63;99588.53;1761697;80;21011;-45
2022/09/07 01:45:35;;;;;;;8.40;2.25;;;;;;;12.36;45.73;99584.27;1762383;81;21477;-40
2022/09/07 01:48:05;;;;;;;3.87;2.22;;;;;;;12.36;45.60;99576.36;1760506;80;20972;-41
2022/09/07 01:50:45;;;;;;;4.55;2.72;;;;;;;12.37;45.63;99581.16;1756057;81;21501;-45
2022/09/07 01:53:35;;;;;;;4.42;2.17;;;;;;;12.35;45.73;99577.76;1737016;82;21493;-40
2022/09/07 01:56:23;;;;;;;8.68;2.33;;;;;;;12.37;45.68;99578.06;1755137;81;20969;-37
2022/09/07 01:58:57;;;;;;;3.50;2.25;;;;;;;12.33;46.27;99571.25;1755250;81;21445;-48
2022/09/07 02:01:46;;;;;;;3.02;1.85;;;;;;;12.31;45.73;99569.66;1756083;81;21011;-38
2022/09/07 02:04:20;;;;;;;4.25;2.00;;;;;;;12.32;45.63;99577.95;1755809;80;21003;-38
2022/09/07 02:07:03;;;;;;;6.08;2.27;;;;;;;12.26;45.75;99566.82;1756066;81;20980;-41
2022/09/07 02:09:34;;;;;;;5.83;2.55;;;;;;;12.25;45.90;99569.55;1755334;81;20959;-41
2022/09/07 02:12:05;;;;;;;4.90;2.17;;;;;;;12.23;45.92;99565.67;1756035;81;20980;-44
2022/09/07 02:14:36;;;;;;;9.38;2.72;;;;;;;12.22;45.71;99561.80;1756033;81;20979;-48
2022/09/07 02:17:33;;;;;;;3.62;1.80;;;;;;;12.20;45.66;99557.92;1756045;81;20980;-42
2022/09/07 02:20:16;;;;;;;2.83;2.08;;;;;;;12.21;45.69;99571.50;1756038;82;20995;-40
2022/09/07 02:22:46;;;;;;;4.03;1.60;;;;;;;12.23;45.63;99560.88;1755728;81;21501;-40
2022/09/07 02:25:18;;;;;;;2.87;1.75;;;;;;;12.22;45.67;99569.23;1755986;80;21509;-39
2022/09/07 02:27:52;;;;;;;3.35;2.00;;;;;;;12.21;45.55;99568.03;1755899;80;21014;-40
2022/09/07 02:30:18;;;;;;;5.53;1.90;;;;;;;12.20;45.79;99563.68;1756098;82;20988;-45
2022/09/07 02:32:44;;;;;;;3.90;2.10;;;;;;;12.19;45.70;99568.11;1756310;82;21459;-45
2022/09/07 02:35:10;;;;;;;6.53;1.90;;;;;;;12.15;45.84;99567.91;1756063;80;20963;-39
2022/09/07 02:37:38;;;;;;;12.45;2.45;;;;;;;12.14;46.08;99566.68;1755996;80;20975;-45
2022/09/07 02:40:07;;;;;;;3.85;2.05;;;;;;;12.17;45.92;99569.98;1743259;82;20961;-40
2022/09/07 02:42:34;;;;;;;5.65;2.35;;;;;;;12.16;46.02;99566.12;1746410;82;21024;-42
2022/09/07 02:45:04;;;;;;;4.22;2.00;;;;;;;12.13;45.84;99561.85;1746545;82;20964;-41
2022/09/07 02:48:01;;;;;;;6.20;2.10;;;;;;;12.09;46.27;99557.70;1710828;84;21002;-42
2022/09/07 02:50:59;;;;;;;3.25;2.15;;;;;;;12.08;45.99;99562.13;1715199;84;21001;-40
2022/09/07 02:53:37;;;;;;;4.65;2.20;;;;;;;12.05;46.35;99560.98;1713307;84;20966;-41
2022/09/07 02:56:20;;;;;;;2.98;2.10;;;;;;;12.04;46.27;99559.75;1714839;84;21431;-41
2022/09/07 02:59:09;;;;;;;4.50;2.15;;;;;;;12.03;46.49;99549.68;1714977;84;20958;-43
2022/09/07 03:02:02;;;;;;;4.33;1.92;;;;;;;12.01;46.45;99550.23;1714518;83;21551;-45
2022/09/07 03:04:50;;;;;;;4.42;2.20;;;;;;;12.00;46.62;99548.53;1715030;84;20969;-41
2022/09/07 03:07:21;;;;;;;5.83;2.20;;;;;;;11.96;46.52;99542.22;1714919;84;21010;-47
2022/09/07 03:09:52;;;;;;;5.70;2.15;;;;;;;11.94;46.41;99537.51;1714555;83;21041;-41
2022/09/07 03:12:18;;;;;;;5.40;2.30;;;;;;;11.92;46.62;99534.11;1715034;84;21038;-43
2022/09/07 03:14:44;;;;;;;4.12;2.42;;;;;;;11.89;46.88;99531.13;1715108;84;21091;-41
2022/09/07 03:17:11;;;;;;;4.47;1.80;;;;;;;11.87;46.79;99539.13;1715149;84;21543;-44
2022/09/07 03:19:37;;;;;;;5.53;2.35;;;;;;;11.83;46.89;99538.92;1715522;83;21490;-39
2022/09/07 03:22:04;;;;;;;5.47;2.10;;;;;;;11.80;47.19;99543.04;1715338;84;21005;-47
2022/09/07 03:26:24;;;;;;;3.87;1.80;;;;;;;11.82;47.39;99539.84;1800947;79;23422;-42
2022/09/07 03:28:50;;;;;;;4.58;2.10;;;;;;;11.79;47.21;99545.75;1761900;80;20992;-41
2022/09/07 03:31:16;;;;;;;7.33;2.27;;;;;;;11.74;46.98;99539.44;1761944;81;21034;-40
2022/09/07 03:33:42;;;;;;;3.20;1.90;;;;;;;11.75;46.75;99541.16;1761908;81;21038;-38
2022/09/07 03:36:08;;;;;;;2.95;2.00;;;;;;;11.75;46.81;99545.11;1761814;80;21548;-40
2022/09/07 03:38:34;;;;;;;3.42;2.10;;;;;;;11.72;46.90;99547.43;1761892;81;20995;-40
2022/09/07 03:41:02;;;;;;;9.95;2.25;;;;;;;11.73;47.04;99550.91;1761767;81;20987;-44
2022/09/07 03:43:29;;;;;;;4.08;2.17;;;;;;;11.69;46.91;99541.48;1761779;81;21027;-39
2022/09/07 03:46:04;;;;;;;4.07;2.50;;;;;;;11.70;46.96;99540.56;1761886;80;20983;-45
2022/09/07 03:48:32;;;;;;;8.33;3.30;;;;;;;11.69;46.94;99548.06;1761781;80;20959;-40
2022/09/07 03:51:02;;;;;;;3.17;1.90;;;;;;;11.68;46.91;99543.75;1761813;81;20983;-42
2022/09/07 03:53:31;;;;;;;4.78;2.00;;;;;;;11.65;46.94;99550.02;1761515;81;21002;-40
2022/09/07 03:56:00;;;;;;;5.37;2.08;;;;;;;11.69;46.91;99552.02;1761766;81;20991;-46
2022/09/07 03:58:29;;;;;;;4.08;2.62;;;;;;;11.70;46.94;99553.73;1761537;80;21472;-43
2022/09/07 04:00:55;;;;;;;6.58;2.35;;;;;;;11.69;46.81;99544.11;1761855;81;20995;-43
2022/09/07 04:03:21;;;;;;;34.85;2.42;;;;;;;11.71;46.85;99552.33;1761813;81;21481;-42
2022/09/07 04:05:47;;;;;;;5.10;2.33;;;;;;;11.69;46.69;99550.70;1761736;81;20989;-46
2022/09/07 04:08:13;;;;;;;11.73;2.62;;;;;;;11.69;46.63;99548.06;1761765;81;20991;-47
2022/09/07 04:10:40;;;;;;;9.13;2.30;;;;;;;11.69;46.91;99548.06;1761775;80;20998;-45
2022/09/07 04:13:06;;;;;;;6.37;2.03;;;;;;;11.70;46.92;99551.09;1761987;81;21524;-41
2022/09/07 04:15:32;;;;;;;9.15;2.30;;;;;;;11.74;46.81;99550.45;1761793;81;21046;-43
2022/09/07 04:17:57;;;;;;;6.37;2.27;;;;;;;11.69;46.70;99543.64;1761737;81;21104;-41
2022/09/07 04:20:24;;;;;;;11.20;2.95;;;;;;;11.67;47.07;99535.45;1761741;81;20987;-40
2022/09/07 04:22:50;;;;;;;6.83;2.20;;;;;;;11.67;46.83;99532.81;1761769;80;20995;-47
2022/09/07 04:25:17;;;;;;;6.28;2.05;;;;;;;11.68;46.93;99531.89;1761681;80;21532;-43
2022/09/07 04:27:43;;;;;;;7.42;1.87;;;;;;;11.66;46.99;99531.11;1762037;81;20975;-40
2022/09/07 04:30:10;;;;;;;4.97;2.55;;;;;;;11.67;46.84;99534.13;1761990;81;21039;-45
2022/09/07 04:32:35;;;;;;;4.72;1.55;;;;;;;11.68;46.78;99531.42;1762165;81;20971;-39
2022/09/07 04:35:01;;;;;;;10.48;2.67;;;;;;;11.69;46.75;99523.04;1762103;81;21484;-39
2022/09/07 04:37:27;;;;;;;5.20;2.10;;;;;;;11.70;46.83;99527.39;1761619;81;20991;-44
2022/09/07 04:39:53;;;;;;;5.58;2.45;;;;;;;11.68;46.62;99523.99;1761405;81;21018;-42
2022/09/07 04:42:20;;;;;;;4.70;2.12;;;;;;;11.70;46.65;99527.39;1761411;81;20987;-42
2022/09/07 04:44:48;;;;;;;4.50;2.20;;;;;;;11.71;46.73;99526.44;1761686;81;20995;-41
2022/09/07 04:47:14;;;;;;;5.85;2.52;;;;;;;11.73;46.57;99531.14;1761551;81;20999;-46
2022/09/07 04:49:40;;;;;;;3.70;2.10;;;;;;;11.73;46.91;99537.73;1761443;81;21011;-44
2022/09/07 04:52:06;;;;;;;6.15;1.85;;;;;;;11.74;46.73;99530.70;1761455;81;20999;-43
2022/09/07 04:54:32;;;;;;;6.25;2.17;;;;;;;11.74;46.85;99527.59;1761495;81;21834;-42
2022/09/07 04:56:57;;;;;;;4.80;2.22;;;;;;;11.77;46.89;99527.87;1761441;81;21524;-41
2022/09/07 04:59:23;;;;;;;3.70;2.00;;;;;;;11.77;46.85;99524.79;1761517;81;21524;-48
2022/09/07 05:01:49;;;;;;;6.25;2.58;;;;;;;11.78;46.95;99525.16;1761482;81;21456;-41
2022/09/07 05:04:15;;;;;;;4.47;2.33;;;;;;;11.81;46.72;99526.31;1761484;80;21038;-45
2022/09/07 05:06:40;;;;;;;6.28;1.95;;;;;;;11.84;47.10;99519.55;1761550;81;20999;-43
2022/09/07 05:09:06;;;;;;;6.35;2.08;;;;;;;11.84;47.18;99522.19;1761367;81;20991;-44
2022/09/07 05:11:32;;;;;;;4.35;2.40;;;;;;;11.84;47.18;99506.83;1761406;81;21030;-43
2022/09/07 05:14:00;;;;;;;4.55;2.33;;;;;;;11.85;47.47;99502.79;1761416;81;21026;-42
2022/09/07 05:16:28;;;;;;;6.17;2.55;;;;;;;11.86;47.13;99503.19;1761444;81;21522;-44
2022/09/07 05:18:56;;;;;;;;;;;;;;;11.88;46.99;99514.48;1764151;81;21000;-40
2022/09/07 05:21:25;;;;;;;5.95;1.95;;;;;;;11.87;48.28;99502.23;1761450;81;20359;-44
2022/09/07 05:23:53;;;;;;;6.78;2.62;;;;;;;11.89;47.14;99514.84;1761485;80;20991;-42
2022/09/07 05:26:21;;;;;;;4.75;2.17;;;;;;;11.92;47.05;99511.71;1750903;81;21015;-44
2022/09/07 05:28:47;;;;;;;4.97;2.55;;;;;;;11.93;47.44;99520.82;1748269;82;21497;-42
2022/09/07 05:31:17;;;;;;;7.70;2.33;;;;;;;11.96;47.16;99517.18;1748097;81;21495;-40
2022/09/07 05:33:51;;;;;;;4.65;2.27;;;;;;;11.98;47.41;99527.16;1748074;82;21610;-43
2022/09/07 05:36:17;;;;;;;11.38;2.40;;;;;;;11.99;47.34;99521.81;1748034;81;20999;-41
2022/09/07 05:38:43;;;;;;;7.53;2.33;;;;;;;12.02;47.25;99518.14;1748192;82;21031;-39
2022/09/07 05:41:19;;;;;;;7.97;2.20;;;;;;;12.06;47.31;99513.93;1748137;81;21528;-44
2022/09/07 05:43:47;;;;;;;8.40;2.62;;;;;;;12.11;47.29;99516.28;1748351;82;21434;-45
2022/09/07 05:46:14;;;;;;;6.53;2.67;;;;;;;12.16;47.13;99518.19;1748172;81;21000;-40
2022/09/07 05:48:40;;;;;;;9.10;2.90;;;;;;;12.18;47.23;99524.22;1748073;81;21406;-44
2022/09/07 05:51:07;;;;;;;7.33;2.67;;;;;;;12.22;47.14;99523.57;1748141;81;21469;-42
2022/09/07 05:53:35;;;;;;;4.60;2.12;;;;;;;12.24;47.57;99526.52;1748349;81;20998;-39
2022/09/07 05:56:01;;;;;;;5.67;2.52;;;;;;;12.28;47.35;99528.50;1746831;81;20936;-46
2022/09/07 05:58:27;;;;;;;10.35;2.30;;;;;;;12.32;47.20;99526.53;1746461;82;20967;-43
2022/09/07 06:01:04;;;;;;;6.47;2.27;;;;;;;12.32;47.37;99518.15;1746439;82;20990;-40
2022/09/07 06:03:30;;;;;;;5.87;2.50;;;;;;;12.37;47.45;99520.05;1746612;82;20995;-43
2022/09/07 06:06:12;;;;;;;9.00;2.40;;;;;;;12.41;47.53;99521.55;1746381;82;21038;-40
2022/09/07 06:08:45;;;;;;;7.25;2.67;;;;;;;12.44;47.74;99527.11;1744743;82;20964;-40
2022/09/07 06:11:14;;;;;;;8.68;2.67;;;;;;;12.47;47.86;99528.25;1746415;82;20984;-47
2022/09/07 06:13:41;;;;;;;8.68;2.47;;;;;;;12.50;47.61;99526.77;1746312;81;21010;-38
2022/09/07 06:16:09;;;;;;;6.33;2.77;;;;;;;12.54;47.78;99516.40;1746627;81;21469;-43
2022/09/07 06:18:41;;;;;;;11.18;2.67;;;;;;;12.52;47.54;99511.69;1746465;82;21255;-40
2022/09/07 06:21:14;;;;;;;9.40;2.70;;;;;;;12.60;47.50;99509.42;1746417;82;21476;-39
2022/09/07 06:23:42;;;;;;;11.38;2.70;;;;;;;12.65;47.99;99513.12;1745882;82;20968;-45
2022/09/07 06:26:09;;;;;;;5.28;2.47;;;;;;;12.69;47.49;99510.66;1746201;80;21063;-42
2022/09/07 06:28:41;;;;;;;12.68;2.77;;;;;;;12.72;47.54;99506.53;1746568;82;21516;-42
2022/09/07 06:31:14;;;;;;;12.55;3.05;;;;;;;12.77;47.41;99514.15;1746114;82;20979;-48
2022/09/07 06:33:42;;;;;;;7.47;2.83;;;;;;;12.82;47.79;99524.83;1745883;81;21004;-44
2022/09/07 06:36:20;;;;;;;14.95;3.20;;;;;;;12.88;47.64;99515.69;1746751;82;21019;-46
2022/09/07 06:38:47;;;;;;;5.65;2.87;;;;;;;12.93;47.63;99524.62;1745811;82;20991;-39
2022/09/07 06:41:23;;;;;;;9.78;2.72;;;;;;;12.96;47.71;99518.69;1746595;82;20999;-45
2022/09/07 06:43:50;;;;;;;10.53;3.35;;;;;;;13.01;47.58;99527.66;1746386;82;21007;-46
2022/09/07 06:46:16;;;;;;;8.15;2.55;;;;;;;13.05;47.76;99524.72;1746381;82;21072;-44
2022/09/07 06:48:42;;;;;;;10.18;2.65;;;;;;;13.10;47.79;99526.22;1746440;82;20984;-47
2022/09/07 06:51:17;;;;;;;13.65;2.58;;;;;;;13.13;47.77;99527.36;1746319;82;21549;-40
2022/09/07 06:53:45;;;;;;;10.15;2.83;;;;;;;13.18;47.61;99523.97;1746403;82;21508;-43
2022/09/07 06:56:17;;;;;;;10.20;2.80;;;;;;;13.23;47.50;99521.89;1746406;82;20991;-45
2022/09/07 06:58:44;;;;;;;6.50;2.87;;;;;;;13.30;47.25;99517.05;1746404;82;21484;-40
2022/09/07 07:01:16;;;;;;;9.98;2.98;;;;;;;13.37;47.29;99516.62;1746419;82;20987;-43
2022/09/07 07:03:43;;;;;;;5.80;2.33;;;;;;;13.42;47.41;99514.55;1746466;82;20987;-40
2022/09/07 07:06:10;;;;;;;8.85;2.47;;;;;;;13.49;47.33;99522.06;1746541;81;21003;-46
2022/09/07 07:08:36;;;;;;;7.58;3.22;;;;;;;13.54;47.11;99527.91;1746550;82;20991;-43
2022/09/07 07:11:07;;;;;;;9.88;2.87;;;;;;;13.60;47.14;99524.38;1746487;82;20983;-43
2022/09/07 07:13:35;;;;;;;13.80;2.70;;;;;;;13.67;47.09;99520.88;1746093;82;20968;-43
2022/09/07 07:16:10;;;;;;;10.43;2.95;;;;;;;13.74;46.80;99521.34;1745987;82;21015;-44
2022/09/07 07:18:36;;;;;;;9.70;3.37;;;;;;;13.80;46.91;99520.45;1746423;82;20972;-41
2022/09/07 07:21:06;;;;;;;19.67;3.60;;;;;;;13.87;46.94;99521.39;1746419;82;20956;-47
2022/09/07 07:23:33;;;;;;;13.03;3.70;;;;;;;13.94;46.86;99524.02;1746450;82;21027;-43
2022/09/07 07:26:05;;;;;;;11.40;2.75;;;;;;;13.99;46.70;99523.24;1748649;82;21465;-43
2022/09/07 07:28:31;;;;;;;18.10;3.20;;;;;;;14.07;46.59;99518.28;1751951;81;20967;-41
2022/09/07 07:30:59;;;;;;;9.25;2.60;;;;;;;14.12;46.46;99517.51;1751952;81;21027;-44
2022/09/07 07:33:31;;;;;;;7.20;2.52;;;;;;;14.21;46.35;99516.05;1752085;81;20960;-40
2022/09/07 07:36:09;;;;;;;9.83;2.58;;;;;;;14.29;46.25;99519.50;1752042;81;20987;-43
2022/09/07 07:38:35;;;;;;;5.65;2.47;;;;;;;14.36;46.58;99521.63;1751586;82;20948;-39
2022/09/07 07:41:01;;;;;;;6.47;2.35;;;;;;;14.43;46.33;99510.16;1752019;82;20991;-44
2022/09/07 07:43:27;;;;;;;13.03;3.05;;;;;;;14.50;46.15;99496.05;1751929;82;21480;-45
2022/09/07 07:45:54;;;;;;;7.28;2.33;;;;;;;14.58;46.13;99502.52;1752033;82;20967;-41
2022/09/07 07:48:20;;;;;;;13.50;2.85;;;;;;;14.66;45.97;99505.11;1752118;82;21019;-44
2022/09/07 07:51:00;;;;;;;5.60;2.20;;;;;;;14.73;45.98;99506.39;1752077;82;20987;-48
2022/09/07 07:53:27;;;;;;;11.45;2.17;;;;;;;14.81;45.80;99508.05;1750419;82;21426;-42
2022/09/07 07:55:55;;;;;;;9.20;2.52;;;;;;;14.89;45.68;99512.80;1752097;81;20952;-39
2022/09/07 07:58:21;;;;;;;5.42;2.52;;;;;;;14.98;45.46;99518.77;1751885;81;20979;-44
2022/09/07 08:00:47;;;;;;;4.67;2.35;;;;;;;15.05;45.33;99508.61;1751926;82;20995;-41
2022/09/07 08:03:13;;;;;;;11.57;2.70;;;;;;;15.13;45.22;99508.89;1751961;82;20991;-43
2022/09/07 08:05:39;;;;;;;7.47;2.55;;;;;;;15.20;45.25;99510.64;1751916;82;20987;-42
2022/09/07 08:08:04;;;;;;;7.92;2.30;;;;;;;15.27;45.37;99514.55;1751952;82;20987;-44
2022/09/07 08:10:30;;;;;;;4.67;2.50;;;;;;;15.35;45.15;99513.52;1751916;82;20956;-45
2022/09/07 08:12:56;;;;;;;3.80;2.35;;;;;;;15.41;45.06;99504.27;1752097;82;20975;-42
2022/09/07 08:15:22;;;;;;;9.33;2.40;;;;;;;15.48;44.83;99504.20;1752129;82;20980;-41
2022/09/07 08:17:49;;;;;;;7.35;2.60;;;;;;;15.58;44.90;99505.72;1752113;81;21019;-37
2022/09/07 08:20:15;;;;;;;6.43;2.40;;;;;;;15.66;44.92;99508.19;1752392;82;21460;-46
2022/09/07 08:22:41;;;;;;;7.10;2.10;;;;;;;15.79;44.97;99511.28;1752399;82;20994;-48
2022/09/07 08:25:09;;;;;;;4.42;2.25;;;;;;;15.84;43.79;99503.84;1752180;81;21649;-38
2022/09/07 08:27:35;;;;;;;4.08;2.05;;;;;;;15.90;43.29;99506.05;1752216;82;21028;-38
2022/09/07 08:30:01;;;;;;;4.95;2.10;;;;;;;15.96;43.60;99511.38;1752126;81;21026;-45
2022/09/07 08:32:29;;;;;;;7.70;2.47;;;;;;;16.01;43.22;99512.73;1752084;82;20956;-44
2022/09/07 08:34:55;;;;;;;5.83;2.40;;;;;;;16.08;43.11;99505.14;1752120;82;21167;-43
2022/09/07 08:37:23;;;;;;;3.92;1.80;;;;;;;16.14;43.14;99502.53;1751987;82;21520;-45
2022/09/07 08:39:48;;;;;;;10.18;3.05;;;;;;;16.23;43.37;99504.49;1752090;82;21019;-43
2022/09/07 08:42:43;;;;;;;4.12;1.98;;;;;;;16.27;43.25;99497.49;1752064;81;20972;-40
2022/09/07 08:45:16;;;;;;;6.75;2.50;;;;;;;16.36;43.20;99503.91;1751665;82;20990;-46
2022/09/07 08:47:49;;;;;;;2.30;2.10;;;;;;;16.48;42.77;99504.77;1752072;81;20980;-43
2022/09/07 08:50:23;;;;;;;7.87;2.25;;;;;;;16.59;42.56;99493.33;1752075;81;21082;-44
2022/09/07 08:53:09;;;;;;;13.13;2.65;;;;;;;16.67;42.37;99491.78;1738803;82;20963;-44
2022/09/07 08:55:46;;;;;;;4.97;2.25;;;;;;;16.79;42.32;99497.97;1751886;82;20948;-40
2022/09/07 08:58:22;;;;;;;9.15;2.08;;;;;;;16.91;41.86;99498.00;1752222;81;20979;-38
2022/09/07 09:00:49;;;;;;;4.33;2.20;;;;;;;17.03;41.80;99502.36;1752453;81;20951;-41
2022/09/07 09:03:28;;;;;;;7.20;2.33;;;;;;;17.15;41.68;99497.37;1752327;82;20992;-45
2022/09/07 09:06:14;;;;;;;8.13;2.10;;;;;;;17.28;41.61;99499.90;1752098;81;21002;-47
2022/09/07 09:09:19;;;;;;;3.27;1.87;;;;;;;17.45;40.10;99493.25;1752194;81;20983;-41
2022/09/07 09:11:56;;;;;;;6.17;1.95;;;;;;;17.64;40.69;99491.27;1752120;81;21058;-39
2022/09/07 09:14:33;;;;;;;4.58;2.10;;;;;;;17.87;40.56;99490.75;1728596;83;20961;-42
2022/09/07 09:17:04;;;;;;;3.30;2.22;;;;;;;18.29;40.82;99482.80;1729950;83;20980;-41
2022/09/07 09:19:55;;;;;;;6.42;2.40;;;;;;;18.89;40.61;99483.53;1704408;83;21008;-42
2022/09/07 09:22:25;;;;;;;3.87;2.60;;;;;;;19.59;41.06;99472.93;1737839;81;21011;-43
2022/09/07 09:24:56;;;;;;;9.48;2.35;;;;;;;20.33;39.84;99472.41;1756008;80;21039;-37
2022/09/07 09:27:22;;;;;;;5.90;3.10;;;;;;;20.84;39.30;99471.67;1747366;81;21019;-42
2022/09/07 09:29:48;;;;;;;6.90;2.45;;;;;;;21.40;38.76;99468.02;1766857;81;20970;-39
2022/09/07 09:32:33;;;;;;;3.85;2.15;;;;;;;21.81;37.75;99471.16;1762658;80;20968;-46
2022/09/07 09:35:34;;;;;;;5.55;2.40;;;;;;;22.00;37.36;99466.13;1741466;82;20987;-45
2022/09/07 09:38:02;;;;;;;9.13;2.52;;;;;;;22.35;36.02;99464.94;1734090;80;21489;-47
2022/09/07 09:40:31;;;;;;;5.03;2.30;;;;;;;22.93;35.88;99467.47;1730444;81;20964;-38
2022/09/07 09:43:04;;;;;;;7.53;2.35;;;;;;;23.13;35.02;99467.58;1723761;82;20984;-52
2022/09/07 09:45:38;;;;;;;4.97;2.60;;;;;;;23.52;34.36;99456.80;1723840;82;20998;-39
2022/09/07 09:48:09;;;;;;;5.92;2.10;;;;;;;24.04;33.79;99449.84;1722673;83;20991;-38
2022/09/07 09:50:39;;;;;;;5.20;2.08;;;;;;;24.58;32.92;99447.98;1723827;82;20979;-45
2022/09/07 09:53:06;;;;;;;9.55;2.50;;;;;;;25.01;31.60;99447.67;1723840;82;20991;-46
2022/09/07 09:55:35;;;;;;;5.33;2.00;;;;;;;25.54;30.53;99452.84;1724033;83;20995;-43
2022/09/07 09:58:06;;;;;;;6.40;2.42;;;;;;;26.03;29.84;99450.30;1736348;82;20956;-43
2022/09/07 10:00:33;;;;;;;2.98;2.37;;;;;;;26.50;29.08;99448.38;1750985;81;21092;-38
2022/09/07 10:03:13;;;;;;;4.70;2.20;;;;;;;26.83;28.56;99451.58;1753300;81;20987;-43
2022/09/07 10:05:43;;;;;;;8.55;2.20;;;;;;;27.05;27.73;99444.91;1753022;81;21433;-43
2022/09/07 10:08:27;;;;;;;3.85;1.72;;;;;;;27.17;27.34;99445.59;1753442;82;21481;-47
2022/09/07 10:11:01;;;;;;;3.50;1.35;;;;;;;27.34;26.84;99445.41;1735175;82;20995;-43
2022/09/07 10:13:46;;;;;;;4.10;2.27;;;;;;;27.45;26.08;99444.94;1753578;82;21007;-50
2022/09/07 10:16:12;;;;;;;9.40;2.17;;;;;;;27.48;25.42;99447.75;1763635;80;20959;-48
2022/09/07 10:18:56;;;;;;;4.37;2.00;;;;;;;27.34;25.18;99436.81;1768485;80;21014;-49
2022/09/07 10:21:27;;;;;;;55.95;5.78;;;;;;;27.65;25.26;99442.94;1766262;80;20982;-46
2022/09/07 10:23:57;;;;;;;10.93;2.37;;;;;;;28.03;25.42;99440.84;1766433;80;20971;-45
2022/09/07 10:26:38;;;;;;;17.30;2.98;;;;;;;28.08;24.37;99432.16;1767747;80;21019;-41
2022/09/07 10:29:29;;;;;;;8.20;2.08;;;;;;;28.13;24.30;99428.36;1774137;81;21022;-45
2022/09/07 10:32:17;;;;;;;27.98;3.70;;;;;;;28.41;23.48;99427.52;1774300;81;20959;-47
2022/09/07 10:34:54;;;;;;;9.73;2.40;;;;;;;28.92;23.91;99438.05;1774272;81;20966;-44
2022/09/07 10:38:03;;;;;;;3.25;2.00;;;;;;;28.76;23.19;99438.38;1767139;81;20955;-39
2022/09/07 10:40:43;;;;;;;7.85;2.00;;;;;;;28.73;23.00;99439.63;1774206;79;20995;-37
2022/09/07 10:43:41;;;;;;;136.12;13.70;;;;;;;28.53;23.83;99434.09;1762983;80;21022;-50
2022/09/07 10:46:31;;;;;;;7.85;2.72;;;;;;;28.53;23.83;99434.09;1761042;81;21015;-52
2022/09/07 10:49:43;;;;;;;10.00;2.80;;;;;;;28.61;23.42;99434.45;1761086;81;21017;-41
2022/09/07 10:52:14;;;;;;;5.87;1.90;;;;;;;28.52;23.48;99432.38;1751141;81;21003;-41
2022/09/07 10:54:51;;;;;;;4.75;1.62;;;;;;;28.71;23.69;99422.23;1761088;81;21017;-44
2022/09/07 10:57:56;;;;;;;10.38;2.00;;;;;;;28.96;23.17;99416.33;1760769;81;21007;-37
2022/09/07 11:00:22;;;;;;;1.60;1.35;;;;;;;29.05;22.77;99420.53;1767921;81;21011;-44
2022/09/07 11:03:24;;;;;;;8.60;2.12;;;;;;;29.36;22.38;99419.22;1761090;81;21139;-39
2022/09/07 11:06:28;;;;;;;3.33;1.77;;;;;;;29.50;22.35;99413.82;1760870;81;21047;-50
2022/09/07 11:09:29;;;;;;;4.15;2.05;;;;;;;29.56;21.75;99407.58;1759115;81;20974;-48
2022/09/07 11:12:10;;;;;;;3.17;1.90;;;;;;;29.32;21.81;99401.69;1760876;81;20955;-45
2022/09/07 11:14:44;;;;;;;3.85;2.17;;;;;;;29.02;22.24;99401.16;1758678;80;20974;-42
2022/09/07 11:17:17;;;;;;;8.95;2.27;;;;;;;29.06;22.81;99403.77;1760677;81;20979;-37
2022/09/07 11:20:04;;;;;;;8.70;2.20;;;;;;;29.09;22.58;99396.59;1761120;81;20975;-46
2022/09/07 11:22:38;;;;;;;9.30;2.30;;;;;;;28.88;22.01;99401.59;1760821;81;20960;-45
2022/09/07 11:25:24;;;;;;;4.60;2.17;;;;;;;29.14;21.83;99414.43;1759307;81;20984;-44
2022/09/07 11:28:18;;;;;;;5.85;2.08;;;;;;;29.14;21.17;99412.22;1737487;82;21055;-47
2022/09/07 11:30:53;;;;;;;6.10;1.90;;;;;;;30.02;21.79;99410.90;1748057;82;20988;-51
2022/09/07 11:33:37;;;;;;;5.42;1.82;;;;;;;30.67;21.03;99407.48;1747877;82;20980;-51
2022/09/07 11:36:13;;;;;;;3.65;1.82;;;;;;;31.25;20.44;99410.74;1747304;81;21015;-45
2022/09/07 11:38:59;;;;;;;;;;;;;;;31.69;19.88;99403.09;1750324;81;21465;-48
2022/09/07 11:41:33;;;;;;;3.15;1.82;;;;;;;32.11;18.87;99397.98;1747741;81;20102;-49
2022/09/07 11:44:19;;;;;;;3.40;1.77;;;;;;;32.92;18.91;99406.16;1739810;79;20948;-46
2022/09/07 11:46:49;;;;;;;1.75;1.50;;;;;;;32.69;18.14;99406.83;1723841;81;21473;-46
2022/09/07 11:49:20;;;;;;;3.22;1.62;;;;;;;33.16;18.00;99398.13;1727504;81;20983;-49
2022/09/07 11:52:00;;;;;;;2.10;1.57;;;;;;;33.48;17.91;99396.02;1718389;82;21485;-41
2022/09/07 11:54:52;;;;;;;4.55;1.80;;;;;;;33.34;17.30;99391.27;1718194;83;21584;-44
2022/09/07 11:57:29;;;;;;;2.15;1.50;;;;;;;33.57;17.18;99399.24;1718133;82;21051;-43
2022/09/07 12:00:09;;;;;;;2.65;1.70;;;;;;;33.95;17.05;99386.59;1718431;82;20984;-45
2022/09/07 12:03:12;;;;;;;5.05;1.92;;;;;;;34.30;16.77;99392.63;1707941;83;21513;-40